Awans, Belgium
Current Conditions -  °F | °C
As of 7:20 PM on Saturday 25 Oct 2014 (Local Time) from EBLG Reporting Station
Broken Clouds Broken Clouds  
Wind Chill: 54°   Ceiling: 2400
Heat Index: 54°   Visibility: 4mi
Dew Point: 52°   Wind: 6mph
Humidity: 94%   Direction: 240°WSW
Pressure: 30.18"   Gusts: NA
Location:  50.67°N, 5.46°E
Report Text: EBLG 251720Z 24005KT 6000 SCT014 BKN024 12/11 Q1022 NOSIG
Loading
Personal Weather Stations






























Interactive Weather Map New forecast layout! Learn more

10-Day Weather Forecast

Advertisements
Track Severe Weather on mobile